createdAt,value
2022-10-21T00:00:54.810Z,20.04
2022-10-21T00:03:22.599Z,19.94
2022-10-21T00:05:49.682Z,19.81
2022-10-21T00:08:17.312Z,19.69
2022-10-21T00:10:44.385Z,19.71
2022-10-21T00:13:11.573Z,19.39
2022-10-21T00:15:38.545Z,19.22
2022-10-21T00:18:05.087Z,19.33
2022-10-21T00:20:33.639Z,19.15
2022-10-21T00:23:02.623Z,19.06
2022-10-21T00:25:32.118Z,19.08
2022-10-21T00:28:00.908Z,18.82
2022-10-21T00:30:27.449Z,18.67
2022-10-21T00:32:53.976Z,18.55
2022-10-21T00:35:20.483Z,18.71
2022-10-21T00:37:46.997Z,18.48
2022-10-21T00:40:13.500Z,18.73
2022-10-21T00:42:45.511Z,18.69
2022-10-21T00:45:19.906Z,18.46
2022-10-21T00:47:54.236Z,18.19
2022-10-21T00:50:27.372Z,18.13
2022-10-21T00:52:56.466Z,18.09
2022-10-21T00:55:26.032Z,18.03
2022-10-21T00:57:53.253Z,17.90
2022-10-21T01:00:19.768Z,17.90
2022-10-21T01:02:46.670Z,17.91
2022-10-21T01:05:14.601Z,17.90
2022-10-21T01:07:41.443Z,17.83
2022-10-21T01:10:08.933Z,17.61
2022-10-21T01:12:45.287Z,17.43
2022-10-21T01:15:28.771Z,17.38
2022-10-21T01:18:14.256Z,17.36
2022-10-21T01:20:46.764Z,17.43
2022-10-21T01:23:34.121Z,17.37
2022-10-21T01:26:19.518Z,17.17
2022-10-21T01:29:02.825Z,17.20
2022-10-21T01:32:07.715Z,17.21
2022-10-21T01:34:48.764Z,17.47
2022-10-21T01:37:49.293Z,17.46
2022-10-21T01:40:42.519Z,17.06
2022-10-21T01:43:29.722Z,17.20
2022-10-21T01:46:01.595Z,17.30
2022-10-21T01:48:37.301Z,17.33
2022-10-21T01:51:07.766Z,17.46
2022-10-21T01:54:04.963Z,17.34
2022-10-21T01:56:36.285Z,17.31
2022-10-21T01:59:08.110Z,17.17
2022-10-21T02:01:38.761Z,17.14
2022-10-21T02:04:10.982Z,17.01
2022-10-21T02:06:37.858Z,17.14
2022-10-21T02:09:07.501Z,17.27
2022-10-21T02:11:38.940Z,17.44
2022-10-21T02:14:13.046Z,17.47
2022-10-21T02:16:41.481Z,17.49
2022-10-21T02:19:15.389Z,17.47
2022-10-21T02:21:43.226Z,17.52
2022-10-21T02:24:31.604Z,17.51
2022-10-21T02:26:58.239Z,17.26
2022-10-21T02:29:32.159Z,17.27
2022-10-21T02:32:08.542Z,17.42
2022-10-21T02:35:12.204Z,17.33
2022-10-21T02:37:53.692Z,17.21
2022-10-21T02:40:47.420Z,17.17
2022-10-21T02:43:18.878Z,17.29
2022-10-21T02:45:49.262Z,17.48
2022-10-21T02:48:15.945Z,17.42
2022-10-21T02:50:42.512Z,17.40
2022-10-21T02:53:11.072Z,17.43
2022-10-21T02:55:40.327Z,17.33
2022-10-21T02:58:12.037Z,17.11
2022-10-21T03:00:39.109Z,17.31
2022-10-21T03:03:05.701Z,17.11
2022-10-21T03:08:03.791Z,16.99
2022-10-21T03:10:30.397Z,17.00
2022-10-21T03:12:56.912Z,17.09
2022-10-21T03:15:23.477Z,16.92
2022-10-21T03:17:50.132Z,16.51
2022-10-21T03:20:16.733Z,16.56
2022-10-21T03:22:44.218Z,16.61
2022-10-21T03:25:11.595Z,16.85
2022-10-21T03:27:41.715Z,16.86
2022-10-21T03:30:12.721Z,16.61
2022-10-21T03:32:43.056Z,16.55
2022-10-21T03:35:12.699Z,16.49
2022-10-21T03:37:42.026Z,16.53
2022-10-21T03:40:12.604Z,16.58
2022-10-21T03:42:40.846Z,16.71
2022-10-21T03:45:08.419Z,16.75
2022-10-21T03:47:35.844Z,16.80
2022-10-21T03:50:02.422Z,16.93
2022-10-21T03:52:29.122Z,16.95
2022-10-21T03:54:55.689Z,17.09
2022-10-21T03:57:22.278Z,17.14
2022-10-21T03:59:48.839Z,16.87
2022-10-21T04:02:15.366Z,16.77
2022-10-21T04:04:44.921Z,16.81
2022-10-21T04:07:14.236Z,16.95
2022-10-21T04:09:43.749Z,16.69
2022-10-21T04:12:12.347Z,16.75
2022-10-21T04:14:39.281Z,16.74
2022-10-21T04:17:08.179Z,16.88
2022-10-21T04:19:34.870Z,16.87
2022-10-21T04:22:01.443Z,16.88
2022-10-21T04:24:28.022Z,16.87
2022-10-21T04:26:54.602Z,17.04
2022-10-21T04:29:21.210Z,16.96
2022-10-21T04:31:47.763Z,17.00
2022-10-21T04:34:14.492Z,16.75
2022-10-21T04:36:41.156Z,16.93
2022-10-21T04:39:08.162Z,16.76
2022-10-21T04:41:34.744Z,16.64
2022-10-21T04:44:01.969Z,16.68
2022-10-21T04:46:28.508Z,16.71
2022-10-21T04:49:03.629Z,16.81
2022-10-21T04:54:01.575Z,16.79
2022-10-21T04:56:28.118Z,16.76
2022-10-21T04:58:54.663Z,16.78
2022-10-21T05:01:21.327Z,16.88
2022-10-21T05:03:50.184Z,16.83
2022-10-21T05:06:16.723Z,16.73
2022-10-21T05:08:46.696Z,16.74
2022-10-21T05:11:15.527Z,16.73
2022-10-21T05:13:42.068Z,16.72
2022-10-21T05:16:08.683Z,16.68
2022-10-21T05:18:35.204Z,16.42
2022-10-21T05:21:01.760Z,16.48
2022-10-21T05:23:28.710Z,16.55
2022-10-21T05:25:57.776Z,16.38
2022-10-21T05:28:24.304Z,16.57
2022-10-21T05:30:52.325Z,16.89
2022-10-21T05:33:18.870Z,16.77
2022-10-21T05:36:01.030Z,16.73
2022-10-21T05:38:29.089Z,16.64
2022-10-21T05:40:55.751Z,16.72
2022-10-21T05:43:22.513Z,16.44
2022-10-21T05:45:49.187Z,16.58
2022-10-21T05:48:19.110Z,16.43
2022-10-21T05:50:52.926Z,16.60
2022-10-21T05:53:20.341Z,16.77
2022-10-21T05:56:04.976Z,16.84
2022-10-21T05:58:34.007Z,16.84
2022-10-21T06:01:01.415Z,16.98
2022-10-21T06:03:30.501Z,16.87
2022-10-21T06:06:02.192Z,16.88
2022-10-21T06:08:30.371Z,16.63
2022-10-21T06:11:05.588Z,16.67
2022-10-21T06:13:33.055Z,16.65
2022-10-21T06:15:59.772Z,16.71
2022-10-21T06:18:27.384Z,16.75
2022-10-21T06:20:53.916Z,16.57
2022-10-21T06:23:20.778Z,16.60
2022-10-21T06:25:56.137Z,16.96
2022-10-21T06:28:22.891Z,16.94
2022-10-21T06:30:52.426Z,17.05
2022-10-21T06:33:24.589Z,17.10
2022-10-21T06:35:53.884Z,17.16
2022-10-21T06:38:20.444Z,17.02
2022-10-21T06:40:51.850Z,17.04
2022-10-21T06:43:19.934Z,17.10
2022-10-21T06:45:46.478Z,17.02
2022-10-21T06:48:13.792Z,16.91
2022-10-21T06:50:40.591Z,17.06
2022-10-21T06:53:07.390Z,17.16
2022-10-21T06:55:34.037Z,16.91
2022-10-21T06:58:00.580Z,17.07
2022-10-21T07:00:27.478Z,17.09
2022-10-21T07:02:54.045Z,17.18
2022-10-21T07:05:23.534Z,17.22
2022-10-21T07:07:50.771Z,17.35
2022-10-21T07:10:17.466Z,17.08
2022-10-21T07:12:46.939Z,17.41
2022-10-21T07:15:14.994Z,17.46
2022-10-21T07:17:41.926Z,17.54
2022-10-21T07:20:09.243Z,17.44
2022-10-21T07:22:35.990Z,17.60
2022-10-21T07:25:02.622Z,17.62
2022-10-21T07:27:29.480Z,17.69
2022-10-21T07:29:56.012Z,17.67
2022-10-21T07:32:25.841Z,17.79
2022-10-21T07:34:55.737Z,18.09
2022-10-21T07:37:24.035Z,17.92
2022-10-21T07:39:56.581Z,17.93
2022-10-21T07:42:24.680Z,17.89
2022-10-21T07:44:59.483Z,17.78
2022-10-21T07:47:26.089Z,17.88
2022-10-21T07:49:52.622Z,18.27
2022-10-21T07:52:21.355Z,18.78
2022-10-21T07:54:47.882Z,19.53
2022-10-21T07:57:14.468Z,20.52
2022-10-21T07:59:40.983Z,21.43
2022-10-21T08:02:08.920Z,22.12
2022-10-21T08:04:35.455Z,22.73
2022-10-21T08:07:02.001Z,22.80
2022-10-21T08:09:28.552Z,22.49
2022-10-21T08:11:55.535Z,22.14
2022-10-21T08:14:22.533Z,21.77
2022-10-21T08:16:55.906Z,21.82
2022-10-21T08:19:31.633Z,21.86
2022-10-21T08:22:00.914Z,21.61
2022-10-21T08:24:28.117Z,21.67
2022-10-21T08:26:55.163Z,21.79
2022-10-21T08:29:25.148Z,21.81
2022-10-21T08:31:52.817Z,22.20
2022-10-21T08:34:23.075Z,22.67
2022-10-21T08:36:54.265Z,22.21
2022-10-21T08:39:27.115Z,22.49
2022-10-21T08:42:11.958Z,23.01
2022-10-21T08:44:56.650Z,23.86
2022-10-21T08:47:23.383Z,24.53
2022-10-21T08:50:00.755Z,25.11
2022-10-21T08:52:53.335Z,25.89
2022-10-21T08:55:44.357Z,26.19
2022-10-21T08:58:31.098Z,26.38
2022-10-21T09:01:15.171Z,26.57
2022-10-21T09:03:54.633Z,27.03
2022-10-21T09:06:54.254Z,27.47
2022-10-21T09:09:30.572Z,27.61
2022-10-21T09:12:03.071Z,26.82
2022-10-21T09:14:36.514Z,26.40
2022-10-21T09:17:12.135Z,26.45
2022-10-21T09:19:45.157Z,26.58
2022-10-21T09:22:35.989Z,26.73
2022-10-21T09:25:22.610Z,26.78
2022-10-21T09:27:56.850Z,26.64
2022-10-21T09:30:24.985Z,26.62
2022-10-21T09:32:58.792Z,26.56
2022-10-21T09:36:03.491Z,26.71
2022-10-21T09:38:40.774Z,26.92
2022-10-21T09:41:16.783Z,26.64
2022-10-21T09:43:44.253Z,25.44
2022-10-21T09:46:14.762Z,25.10
2022-10-21T09:49:16.319Z,25.18
2022-10-21T09:51:35.340Z,25.40
2022-10-21T09:54:10.336Z,26.13
2022-10-21T09:56:57.167Z,26.57
2022-10-21T09:59:29.058Z,26.98
2022-10-21T10:02:07.231Z,26.01
2022-10-21T10:04:35.106Z,25.48
2022-10-21T10:07:18.467Z,24.99
2022-10-21T10:09:46.509Z,23.76
2022-10-21T10:12:15.449Z,23.49
2022-10-21T10:14:46.398Z,23.10
2022-10-21T10:17:37.026Z,22.99
2022-10-21T10:20:17.739Z,23.04
2022-10-21T10:22:47.913Z,23.11
2022-10-21T10:25:24.284Z,23.07
2022-10-21T10:27:53.878Z,23.43
2022-10-21T10:30:25.409Z,23.54
2022-10-21T10:32:56.037Z,23.81
2022-10-21T10:35:30.358Z,24.16
2022-10-21T10:37:59.068Z,24.55
2022-10-21T10:40:42.271Z,24.36
2022-10-21T10:43:14.828Z,24.24
2022-10-21T10:46:00.351Z,25.40
2022-10-21T10:48:50.381Z,26.36
2022-10-21T10:51:32.785Z,26.59
2022-10-21T10:54:27.258Z,27.55
2022-10-21T10:57:04.637Z,27.89
2022-10-21T10:59:43.086Z,28.25
2022-10-21T11:02:09.741Z,28.40
2022-10-21T11:04:41.481Z,28.48
2022-10-21T11:07:07.974Z,28.47
2022-10-21T11:09:34.701Z,28.85
2022-10-21T11:12:05.949Z,29.27
2022-10-21T11:14:32.550Z,29.19
2022-10-21T11:17:18.813Z,28.39
2022-10-21T11:19:55.747Z,28.20
2022-10-21T11:22:46.654Z,28.07
2022-10-21T11:25:41.802Z,27.62
2022-10-21T11:28:33.718Z,27.73
2022-10-21T11:31:13.323Z,28.05
2022-10-21T11:34:14.039Z,27.68
2022-10-21T11:37:03.157Z,27.45
2022-10-21T11:39:56.938Z,27.06
2022-10-21T11:42:38.104Z,26.50
2022-10-21T11:45:43.619Z,25.07
2022-10-21T11:48:49.107Z,25.00
2022-10-21T11:51:31.148Z,24.87
2022-10-21T11:54:34.933Z,24.65
2022-10-21T11:57:13.575Z,24.75
2022-10-21T12:00:10.627Z,24.86
2022-10-21T12:02:58.861Z,24.93
2022-10-21T12:05:46.473Z,24.97
2022-10-21T12:08:27.417Z,24.96
2022-10-21T12:11:10.593Z,25.05
2022-10-21T12:13:51.041Z,25.27
2022-10-21T12:16:29.014Z,25.39
2022-10-21T12:19:10.392Z,25.16
2022-10-21T12:21:40.198Z,25.08
2022-10-21T12:24:22.051Z,24.94
2022-10-21T12:26:58.370Z,24.95
2022-10-21T12:29:44.922Z,24.73
2022-10-21T12:32:23.486Z,24.76
2022-10-21T12:34:50.118Z,24.71
2022-10-21T12:37:42.318Z,24.73
2022-10-21T12:40:25.452Z,24.74
2022-10-21T12:43:16.249Z,24.70
2022-10-21T12:45:43.099Z,24.23
2022-10-21T12:48:48.492Z,24.11
2022-10-21T12:51:35.420Z,24.02
2022-10-21T12:54:16.499Z,23.99
2022-10-21T12:56:47.154Z,23.96
2022-10-21T12:59:25.789Z,23.98
2022-10-21T13:02:18.185Z,24.12
2022-10-21T13:04:48.293Z,24.24
2022-10-21T13:07:14.760Z,24.18
2022-10-21T13:09:56.253Z,24.15
2022-10-21T13:12:25.314Z,23.99
2022-10-21T13:15:05.543Z,23.82
2022-10-21T13:17:49.025Z,23.85
2022-10-21T13:20:15.465Z,23.62
2022-10-21T13:22:44.271Z,23.31
2022-10-21T13:25:16.767Z,23.06
2022-10-21T13:28:02.896Z,23.13
2022-10-21T13:30:38.027Z,23.20
2022-10-21T13:33:26.458Z,23.18
2022-10-21T13:35:56.104Z,23.15
2022-10-21T13:38:24.405Z,22.94
2022-10-21T13:40:54.689Z,23.02
2022-10-21T13:44:07.633Z,23.02
2022-10-21T13:46:43.380Z,22.90
2022-10-21T13:49:33.353Z,23.06
2022-10-21T13:52:03.406Z,23.02
2022-10-21T13:54:35.876Z,23.06
2022-10-21T13:57:07.092Z,23.07
2022-10-21T13:59:34.918Z,22.75
2022-10-21T14:02:02.161Z,22.74
2022-10-21T14:04:33.374Z,22.69
2022-10-21T14:07:15.842Z,22.70
2022-10-21T14:09:49.518Z,22.71
2022-10-21T14:12:40.220Z,22.90
2022-10-21T14:15:19.531Z,22.94
2022-10-21T14:17:52.805Z,23.04
2022-10-21T14:20:30.251Z,23.10
2022-10-21T14:22:56.959Z,23.28
2022-10-21T14:25:23.891Z,23.42
2022-10-21T14:27:50.746Z,23.48
2022-10-21T14:30:23.082Z,23.50
2022-10-21T14:32:50.836Z,23.41
2022-10-21T14:35:20.134Z,23.39
2022-10-21T14:37:52.468Z,23.00
2022-10-21T14:40:39.617Z,22.84
2022-10-21T14:43:20.863Z,22.66
2022-10-21T14:45:51.039Z,22.64
2022-10-21T14:48:29.249Z,22.68
2022-10-21T14:51:07.032Z,22.58
2022-10-21T14:53:49.453Z,22.52
2022-10-21T14:56:20.385Z,22.68
2022-10-21T14:58:52.706Z,22.50
2022-10-21T15:01:21.745Z,22.20
2022-10-21T15:03:53.190Z,22.44
2022-10-21T15:06:32.847Z,22.60
2022-10-21T15:09:17.797Z,22.74
2022-10-21T15:11:46.017Z,22.84
2022-10-21T15:14:12.504Z,22.97
2022-10-21T15:16:57.509Z,22.84
2022-10-21T15:19:27.765Z,23.15
2022-10-21T15:21:58.796Z,23.34
2022-10-21T15:24:27.257Z,23.07
2022-10-21T15:26:54.465Z,22.97
2022-10-21T15:29:20.914Z,22.78
2022-10-21T15:31:47.825Z,22.66
2022-10-21T15:34:16.014Z,22.47
2022-10-21T15:36:44.014Z,22.27
2022-10-21T15:39:11.156Z,22.26
2022-10-21T15:41:38.277Z,22.22
2022-10-21T15:44:21.801Z,22.26
2022-10-21T15:46:50.274Z,22.26
2022-10-21T15:49:22.478Z,22.13
2022-10-21T15:51:50.505Z,22.06
2022-10-21T15:54:18.401Z,21.98
2022-10-21T15:56:46.927Z,21.92
2022-10-21T15:59:22.635Z,21.92
2022-10-21T16:01:56.568Z,21.82
2022-10-21T16:04:24.042Z,21.61
2022-10-21T16:06:52.282Z,21.46
2022-10-21T16:09:29.681Z,21.48
2022-10-21T16:12:00.395Z,21.36
2022-10-21T16:14:30.174Z,21.27
2022-10-21T16:16:58.372Z,21.24
2022-10-21T16:19:24.947Z,21.27
2022-10-21T16:21:51.508Z,21.20
2022-10-21T16:24:18.213Z,20.98
2022-10-21T16:26:47.230Z,20.82
2022-10-21T16:29:21.188Z,20.76
2022-10-21T16:31:47.938Z,20.58
2022-10-21T16:34:14.430Z,20.70
2022-10-21T16:36:41.012Z,20.66
2022-10-21T16:39:14.837Z,20.77
2022-10-21T16:41:41.535Z,20.62
2022-10-21T16:44:08.048Z,20.64
2022-10-21T16:46:44.567Z,20.53
2022-10-21T16:49:15.887Z,20.49
2022-10-21T16:51:46.240Z,20.31
2022-10-21T16:54:13.357Z,19.87
2022-10-21T16:56:39.864Z,19.90
2022-10-21T16:59:08.584Z,20.04
2022-10-21T17:01:35.305Z,19.94
2022-10-21T17:04:02.493Z,19.84
2022-10-21T17:06:29.186Z,19.65
2022-10-21T17:08:56.455Z,19.57
2022-10-21T17:11:27.897Z,19.55
2022-10-21T17:13:54.427Z,19.49
2022-10-21T17:16:21.350Z,19.58
2022-10-21T17:18:48.237Z,19.31
2022-10-21T17:21:25.287Z,19.05
2022-10-21T17:23:52.756Z,18.96
2022-10-21T17:26:20.208Z,18.95
2022-10-21T17:28:47.080Z,18.74
2022-10-21T17:31:19.311Z,18.75
2022-10-21T17:33:47.226Z,18.60
2022-10-21T17:36:14.604Z,18.53
2022-10-21T17:38:41.964Z,18.41
2022-10-21T17:41:14.408Z,18.10
2022-10-21T17:43:41.035Z,18.14
2022-10-21T17:46:11.923Z,18.11
2022-10-21T17:48:41.042Z,17.61
2022-10-21T17:51:09.654Z,17.47
2022-10-21T17:53:36.187Z,17.49
2022-10-21T17:56:06.023Z,17.31
2022-10-21T17:58:33.213Z,17.49
2022-10-21T18:01:00.836Z,17.25
2022-10-21T18:03:29.020Z,17.21
2022-10-21T18:05:57.080Z,17.12
2022-10-21T18:08:23.947Z,16.78
2022-10-21T18:10:55.476Z,16.61
2022-10-21T18:13:23.391Z,16.71
2022-10-21T18:15:50.581Z,16.78
2022-10-21T18:18:18.339Z,16.68
2022-10-21T18:20:44.957Z,16.70
2022-10-21T18:23:16.285Z,16.69
2022-10-21T18:25:43.342Z,16.46
2022-10-21T18:28:13.650Z,16.65
2022-10-21T18:30:43.473Z,16.69
2022-10-21T18:33:12.305Z,16.55
2022-10-21T18:35:38.862Z,16.73
2022-10-21T18:38:05.397Z,16.78
2022-10-21T18:40:33.493Z,16.75
2022-10-21T18:43:00.239Z,16.49
2022-10-21T18:45:26.748Z,16.41
2022-10-21T18:47:55.525Z,16.59
2022-10-21T18:50:22.057Z,16.85
2022-10-21T18:52:48.889Z,16.81
2022-10-21T18:55:15.779Z,16.71
2022-10-21T18:57:44.927Z,16.71
2022-10-21T19:00:14.956Z,16.79
2022-10-21T19:02:44.807Z,16.68
2022-10-21T19:05:14.173Z,16.49
2022-10-21T19:07:44.502Z,16.47
2022-10-21T19:10:15.358Z,16.57
2022-10-21T19:12:45.903Z,16.63
2022-10-21T19:15:15.575Z,16.72
2022-10-21T19:17:47.532Z,16.54
2022-10-21T19:20:17.013Z,16.49
2022-10-21T19:22:43.676Z,16.33
2022-10-21T19:25:12.675Z,16.40
2022-10-21T19:27:39.477Z,16.44
2022-10-21T19:30:06.777Z,16.27
2022-10-21T19:32:33.315Z,16.18
2022-10-21T19:35:00.013Z,16.15
2022-10-21T19:37:26.551Z,16.01
2022-10-21T19:39:53.063Z,16.14
2022-10-21T19:42:19.745Z,16.34
2022-10-21T19:44:46.354Z,15.99
2022-10-21T19:47:15.847Z,16.03
2022-10-21T19:49:45.220Z,16.23
2022-10-21T19:52:14.523Z,16.55
2022-10-21T19:54:44.379Z,16.43
2022-10-21T19:57:15.228Z,16.37
2022-10-21T19:59:44.666Z,16.46
2022-10-21T20:02:12.441Z,16.32
2022-10-21T20:04:38.997Z,16.53
2022-10-21T20:07:05.546Z,16.45
2022-10-21T20:09:33.949Z,16.47
2022-10-21T20:12:03.139Z,16.48
2022-10-21T20:14:29.857Z,16.21
2022-10-21T20:16:56.455Z,16.41
2022-10-21T20:19:23.102Z,16.55
2022-10-21T20:21:49.882Z,16.24
2022-10-21T20:24:17.089Z,16.36
2022-10-21T20:26:49.240Z,16.20
2022-10-21T20:29:15.895Z,16.16
2022-10-21T20:31:46.342Z,16.40
2022-10-21T20:34:15.813Z,16.27
2022-10-21T20:36:45.557Z,16.42
2022-10-21T20:39:13.985Z,16.36
2022-10-21T20:41:46.703Z,16.41
2022-10-21T20:44:16.409Z,16.34
2022-10-21T20:46:46.182Z,16.47
2022-10-21T20:49:15.909Z,16.23
2022-10-21T20:51:45.920Z,16.36
2022-10-21T20:54:16.303Z,16.30
2022-10-21T20:56:46.569Z,16.49
2022-10-21T20:59:16.705Z,16.43
2022-10-21T21:01:47.577Z,16.48
2022-10-21T21:04:20.850Z,16.78
2022-10-21T21:06:49.265Z,16.79
2022-10-21T21:12:07.097Z,16.49
2022-10-21T21:14:33.748Z,16.47
2022-10-21T21:17:00.471Z,16.44
2022-10-21T21:19:27.171Z,16.89
2022-10-21T21:21:53.758Z,16.97
2022-10-21T21:24:20.412Z,16.93
2022-10-21T21:26:47.026Z,17.09
2022-10-21T21:29:16.345Z,17.18
2022-10-21T21:31:43.380Z,16.95
2022-10-21T21:34:10.951Z,17.00
2022-10-21T21:36:37.887Z,16.81
2022-10-21T21:39:06.087Z,16.77
2022-10-21T21:41:32.711Z,16.91
2022-10-21T21:43:59.438Z,16.65
2022-10-21T21:46:26.872Z,16.77
2022-10-21T21:48:59.576Z,16.68
2022-10-21T21:51:29.398Z,16.76
2022-10-21T21:53:57.127Z,16.80
2022-10-21T21:56:24.689Z,16.53
2022-10-21T21:58:52.592Z,16.74
2022-10-21T22:01:23.243Z,16.93
2022-10-21T22:03:51.900Z,16.68
2022-10-21T22:08:51.426Z,16.60
2022-10-21T22:11:25.079Z,16.44
2022-10-21T22:13:51.754Z,16.31
2022-10-21T22:16:24.308Z,16.50
2022-10-21T22:18:51.371Z,16.39
2022-10-21T22:21:21.073Z,16.65
2022-10-21T22:23:52.134Z,16.61
2022-10-21T22:26:23.327Z,16.71
2022-10-21T22:28:50.578Z,16.68
2022-10-21T22:31:27.323Z,16.69
2022-10-21T22:33:57.503Z,16.65
2022-10-21T22:36:24.222Z,16.62
2022-10-21T22:38:50.833Z,16.70
2022-10-21T22:41:19.562Z,16.27
2022-10-21T22:43:46.128Z,16.19
2022-10-21T22:48:59.437Z,16.20
2022-10-21T22:51:26.146Z,16.19
2022-10-21T22:53:55.525Z,16.20
2022-10-21T22:56:26.908Z,16.25
2022-10-21T22:58:54.081Z,16.02
2022-10-21T23:01:24.289Z,16.06
2022-10-21T23:03:54.164Z,16.03
2022-10-21T23:06:21.793Z,16.08
2022-10-21T23:08:48.455Z,16.12
2022-10-21T23:11:15.999Z,16.27
2022-10-21T23:13:56.184Z,16.32
2022-10-21T23:16:29.872Z,16.53
2022-10-21T23:18:56.529Z,16.23
2022-10-21T23:21:23.139Z,16.34
2022-10-21T23:23:52.164Z,16.45
2022-10-21T23:26:18.804Z,16.59
2022-10-21T23:28:45.439Z,16.41
2022-10-21T23:31:12.088Z,16.52
2022-10-21T23:33:38.714Z,16.29
2022-10-21T23:36:05.619Z,16.33
2022-10-21T23:38:32.267Z,16.31
2022-10-21T23:40:58.832Z,16.61
2022-10-21T23:43:25.457Z,16.67
2022-10-21T23:45:55.933Z,16.69
2022-10-21T23:48:25.587Z,16.49
2022-10-21T23:50:55.018Z,16.66
2022-10-21T23:53:23.807Z,16.74
2022-10-21T23:55:50.411Z,16.59
2022-10-21T23:58:17.017Z,16.44
